Time;durP1;ratioP1;P1;durP2;ratioP2;P2;SDS_P1;SDS_P2;PMS_P1;PMS_P2;Temp;Humidity;BMP_temperature;BMP_pressure;BME280_temperature;BME280_humidity;BME280_pressure;Samples;Min_cycle;Max_cycle;Signal;HPM_P1;HPM_P2
2022/01/12 00:00:42;;;;;;;113.50;46.30;;;;;;;-3.26;81.61;101841.17;208482;1316;140643;-63
2022/01/12 00:05:47;;;;;;;99.80;43.70;;;;;;;-3.30;81.58;101844.75;208151;1316;140657;-63
2022/01/12 00:10:50;;;;;;;98.10;48.80;;;;;;;-3.29;81.67;101846.75;208183;1318;141087;-63
2022/01/12 00:15:53;;;;;;;107.40;45.80;;;;;;;-3.30;81.80;101848.03;207020;1317;142386;-63
2022/01/12 00:20:56;;;;;;;93.30;42.10;;;;;;;-3.32;81.85;101842.77;207140;1318;141477;-63
2022/01/12 00:26:03;;;;;;;94.60;42.90;;;;;;;-3.37;81.74;101839.13;208511;1316;141845;-63
2022/01/12 00:36:32;;;;;;;97.60;42.40;;;;;;;-3.31;81.64;101830.88;207992;1316;141300;-62
2022/01/12 00:41:37;;;;;;;98.40;43.70;;;;;;;-3.32;81.66;101825.58;208710;1316;152566;-63
2022/01/12 00:46:41;;;;;;;95.80;38.80;;;;;;;-3.36;81.79;101833.31;207915;1317;205251;-62
2022/01/12 00:51:44;;;;;;;115.70;45.90;;;;;;;-3.35;81.88;101837.58;208987;1316;142544;-63
2022/01/12 00:56:47;;;;;;;100.70;45.00;;;;;;;-3.34;81.57;101839.94;209139;1316;141268;-62
2022/01/12 01:01:50;;;;;;;110.10;43.20;;;;;;;-3.32;81.38;101839.67;208164;1317;143488;-62
2022/01/12 01:06:54;;;;;;;98.40;42.50;;;;;;;-3.28;81.85;101840.95;207786;1317;141636;-63
2022/01/12 01:11:58;;;;;;;93.00;40.80;;;;;;;-3.22;81.84;101839.92;208913;1316;140448;-64
2022/01/12 01:25:26;;;;;;;98.20;42.80;;;;;;;-3.22;81.68;101840.39;208970;1317;140862;-63
2022/01/12 01:27:53;;;;;;;106.20;40.50;;;;;;;-3.21;81.47;101842.30;207530;1316;140454;-64
2022/01/12 01:32:58;;;;;;;97.90;44.20;;;;;;;-3.20;81.16;101840.65;207531;1318;142269;-62
2022/01/12 01:38:02;;;;;;;88.80;39.00;;;;;;;-3.30;81.41;101834.11;207696;1316;140963;-63
2022/01/12 01:43:19;;;;;;;81.90;34.70;;;;;;;-3.35;81.66;101834.79;207274;1317;140875;-63
2022/01/12 01:53:46;;;;;;;97.60;45.10;;;;;;;-3.31;81.70;101830.87;207769;1316;141215;-63
2022/01/12 01:58:50;;;;;;;105.30;49.30;;;;;;;-3.27;81.71;101823.32;207146;1318;141771;-62
2022/01/12 02:03:57;;;;;;;118.00;47.60;;;;;;;-3.22;82.19;101826.84;207379;1318;142596;-62
2022/01/12 02:09:02;;;;;;;85.90;35.30;;;;;;;-3.19;81.85;101827.76;207414;1316;140775;-61
2022/01/12 02:14:05;;;;;;;110.80;48.60;;;;;;;-3.26;81.80;101828.98;206948;1316;141413;-62
2022/01/12 02:19:29;;;;;;;99.10;42.10;;;;;;;-3.23;81.76;101833.70;207889;1318;141355;-62
2022/01/12 02:35:44;;;;;;;94.70;43.00;;;;;;;-3.23;82.15;101830.23;207487;1316;141234;-63
2022/01/12 02:40:51;;;;;;;99.50;45.60;;;;;;;-3.23;81.95;101826.38;207345;1316;143162;-62
2022/01/12 02:56:40;;;;;;;89.30;40.20;;;;;;;-3.14;82.01;101820.62;208014;1316;140926;-63
2022/01/12 03:02:05;;;;;;;106.60;45.90;;;;;;;-3.19;81.87;101817.63;207692;1318;141094;-63
2022/01/12 03:07:15;;;;;;;93.50;41.40;;;;;;;-3.16;81.86;101817.80;208705;1319;142256;-64
2022/01/12 03:12:20;;;;;;;114.90;50.10;;;;;;;-3.10;81.82;101816.73;208718;1317;140594;-65
2022/01/12 03:17:24;;;;;;;119.40;49.20;;;;;;;-2.99;81.94;101822.14;208772;1316;140150;-66
2022/01/12 03:22:27;;;;;;;93.20;46.60;;;;;;;-2.93;82.01;101822.11;208470;1315;140838;-64
2022/01/12 03:27:29;;;;;;;97.90;48.60;;;;;;;-2.93;81.98;101819.83;207577;1318;141719;-66
2022/01/12 03:32:44;;;;;;;98.90;42.80;;;;;;;-2.87;82.06;101812.81;208466;1318;140166;-63
2022/01/12 04:13:04;;;;;;;92.50;39.50;;;;;;;-2.92;81.61;101806.70;206829;1318;140639;-63
2022/01/12 04:18:08;;;;;;;101.70;48.50;;;;;;;-2.96;81.48;101808.39;207578;1318;140607;-63
2022/01/12 04:23:18;;;;;;;98.90;46.30;;;;;;;-2.98;81.81;101817.68;207541;1316;140384;-63
2022/01/12 04:28:21;;;;;;;78.00;38.00;;;;;;;-2.97;81.87;101822.67;207844;1317;140866;-63
2022/01/12 04:33:25;;;;;;;93.80;42.00;;;;;;;-2.99;81.81;101827.51;208156;1316;141262;-62
2022/01/12 04:38:33;;;;;;;101.20;43.30;;;;;;;-2.98;81.92;101830.21;208260;1313;140964;-63
2022/01/12 04:43:42;;;;;;;103.50;41.40;;;;;;;-2.98;81.71;101822.23;208484;1312;142311;-63
2022/01/12 04:48:56;;;;;;;83.70;42.40;;;;;;;-2.92;81.63;101816.27;207669;1316;141845;-62
2022/01/12 04:53:59;;;;;;;94.50;44.20;;;;;;;-2.83;81.78;101817.59;207611;1316;141199;-63
2022/01/12 04:59:02;;;;;;;86.20;40.70;;;;;;;-2.78;81.79;101817.82;208435;1316;139680;-63
2022/01/12 05:09:48;;;;;;;98.70;40.90;;;;;;;-2.86;81.37;101815.02;209386;1316;141148;-64
2022/01/12 05:15:04;;;;;;;87.40;40.00;;;;;;;-2.81;81.45;101808.60;209391;1317;143017;-63
2022/01/12 05:20:07;;;;;;;94.00;42.30;;;;;;;-2.77;81.30;101801.89;209233;1316;141258;-64
2022/01/12 05:25:11;;;;;;;88.40;38.00;;;;;;;-2.70;81.52;101804.92;208517;1317;141263;-63
2022/01/12 05:30:14;;;;;;;87.80;36.00;;;;;;;-2.71;81.33;101808.99;208526;1315;143477;-64
2022/01/12 05:35:18;;;;;;;83.80;37.10;;;;;;;-2.70;81.34;101815.39;207459;1318;140590;-62
2022/01/12 05:40:20;;;;;;;74.40;35.30;;;;;;;-2.71;81.36;101809.17;207727;1319;141527;-63
2022/01/12 05:45:23;;;;;;;79.90;37.30;;;;;;;-2.73;81.42;101807.73;206991;1316;141829;-62
2022/01/12 05:50:29;;;;;;;74.20;34.10;;;;;;;-2.69;81.21;101817.59;207700;1317;143145;-63
2022/01/12 05:55:33;;;;;;;82.00;35.30;;;;;;;-2.66;81.24;101827.81;206613;1317;380167;-63
2022/01/12 06:00:36;;;;;;;89.60;43.70;;;;;;;-2.67;81.31;101827.88;207310;1316;143659;-63
2022/01/12 06:05:40;;;;;;;85.10;38.00;;;;;;;-2.72;81.16;101827.14;207675;1316;142597;-64
2022/01/12 06:10:43;;;;;;;78.60;39.90;;;;;;;-2.76;81.18;101827.80;207239;1315;141026;-64
2022/01/12 06:15:45;;;;;;;99.00;43.30;;;;;;;-2.83;81.25;101828.02;207098;1315;142462;-66
2022/01/12 06:20:48;;;;;;;103.50;41.70;;;;;;;-2.85;81.26;101836.73;207065;1316;140970;-67
2022/01/12 06:25:51;;;;;;;78.90;40.40;;;;;;;-2.80;81.44;101842.80;207679;1312;141127;-67
2022/01/12 06:31:12;;;;;;;92.90;45.30;;;;;;;-2.75;81.53;101832.42;207001;1316;141231;-65
2022/01/12 06:36:21;;;;;;;92.40;44.50;;;;;;;-2.75;81.32;101848.43;208104;1315;143585;-68
2022/01/12 06:41:27;;;;;;;85.10;42.60;;;;;;;-2.77;81.28;101845.26;207213;1316;141629;-64
2022/01/12 06:46:31;;;;;;;92.90;41.70;;;;;;;-2.83;81.28;101849.98;207783;1316;141894;-63
2022/01/12 06:51:34;;;;;;;87.20;40.50;;;;;;;-2.86;80.90;101859.95;206849;1316;142390;-64
2022/01/12 06:56:51;;;;;;;91.80;43.80;;;;;;;-2.90;80.92;101859.83;207809;1316;152514;-61
2022/01/12 07:01:56;;;;;;;102.20;42.90;;;;;;;-2.84;81.21;101857.54;207053;1316;142356;-61
2022/01/12 07:07:00;;;;;;;92.70;45.20;;;;;;;-2.77;81.31;101862.16;208151;1318;140331;-65
2022/01/12 07:12:02;;;;;;;100.40;46.60;;;;;;;-2.73;81.17;101867.77;209195;1316;140716;-64
2022/01/12 07:17:10;;;;;;;85.90;37.80;;;;;;;-2.70;81.09;101862.88;208925;1316;140558;-64
2022/01/12 07:22:18;;;;;;;71.90;38.20;;;;;;;-2.65;81.26;101866.09;208634;1315;140337;-65
2022/01/12 07:27:21;;;;;;;93.20;41.20;;;;;;;-2.59;81.08;101861.36;209054;1318;140485;-67
2022/01/12 07:32:23;;;;;;;88.10;37.60;;;;;;;-2.45;80.88;101852.90;208109;1318;141474;-67
2022/01/12 07:37:26;;;;;;;85.80;39.40;;;;;;;-2.26;80.79;101849.98;209439;1316;142147;-66
2022/01/12 07:42:28;;;;;;;71.70;32.60;;;;;;;-2.11;81.07;101858.14;207942;1316;140174;-66
2022/01/12 07:47:31;;;;;;;84.90;36.90;;;;;;;-2.03;80.64;101864.08;207541;1318;140000;-66
2022/01/12 07:52:37;;;;;;;93.70;44.00;;;;;;;-1.94;80.54;101859.69;208290;1318;141548;-66
2022/01/12 07:57:45;;;;;;;91.60;44.60;;;;;;;-1.88;80.57;101852.11;207032;1317;140893;-65
2022/01/12 08:02:50;;;;;;;82.80;43.90;;;;;;;-1.84;80.62;101844.38;208034;1316;151236;-65
2022/01/12 08:07:54;;;;;;;104.40;48.20;;;;;;;-1.83;80.58;101853.52;206926;1317;140991;-65
2022/01/12 08:12:57;;;;;;;98.50;44.10;;;;;;;-1.87;80.61;101861.96;207262;1316;142753;-65
2022/01/12 08:18:00;;;;;;;99.80;47.60;;;;;;;-1.86;80.73;101871.52;207554;1316;140932;-64
2022/01/12 08:23:03;;;;;;;98.50;48.30;;;;;;;-1.87;80.61;101871.05;207226;1316;141407;-65
2022/01/12 08:28:06;;;;;;;99.70;48.40;;;;;;;-1.84;80.75;101854.80;207040;1315;140790;-64
2022/01/12 08:33:12;;;;;;;110.80;49.20;;;;;;;-1.80;80.68;101848.05;207434;1316;140242;-65
2022/01/12 08:38:16;;;;;;;99.20;53.30;;;;;;;-1.76;80.79;101840.64;207590;1316;140075;-63
2022/01/12 08:43:18;;;;;;;130.30;52.50;;;;;;;-1.79;80.75;101839.98;207288;1315;140406;-64
2022/01/12 08:48:22;;;;;;;112.60;53.00;;;;;;;-1.79;80.68;101834.77;207708;1318;140201;-65
2022/01/12 08:53:26;;;;;;;117.10;57.00;;;;;;;-1.76;80.81;101836.48;207820;1318;142466;-65
2022/01/12 08:58:29;;;;;;;113.10;51.00;;;;;;;-1.67;80.75;101841.80;207272;1318;141660;-64
2022/01/12 09:03:31;;;;;;;110.80;51.30;;;;;;;-1.57;80.81;101836.23;207136;1316;141084;-65
2022/01/12 09:08:37;;;;;;;119.50;56.30;;;;;;;-1.52;80.76;101827.00;207760;1316;141171;-65
2022/01/12 09:13:41;;;;;;;114.50;58.00;;;;;;;-1.49;80.66;101826.76;207967;1318;139769;-66
2022/01/12 09:18:44;;;;;;;129.00;54.30;;;;;;;-1.45;80.71;101828.96;208103;1315;140210;-67
2022/01/12 09:23:48;;;;;;;114.80;52.50;;;;;;;-1.43;80.55;101829.82;208757;1317;141285;-66
2022/01/12 09:28:52;;;;;;;119.60;57.30;;;;;;;-1.37;80.54;101834.30;208282;1316;141217;-66
2022/01/12 09:33:55;;;;;;;130.80;59.00;;;;;;;-1.29;80.50;101837.80;209303;1318;140213;-66
2022/01/12 09:38:58;;;;;;;120.80;53.90;;;;;;;-1.23;80.65;101827.95;208759;1318;140851;-65
2022/01/12 09:44:01;;;;;;;94.50;44.60;;;;;;;-1.18;80.61;101818.45;208022;1318;140147;-66
2022/01/12 09:49:06;;;;;;;108.50;51.20;;;;;;;-1.16;80.21;101813.61;207411;1316;143276;-64
2022/01/12 09:54:12;;;;;;;124.30;55.70;;;;;;;-1.12;80.07;101808.45;207918;1316;142216;-65
2022/01/12 09:59:16;;;;;;;128.40;58.20;;;;;;;-1.10;80.02;101808.48;207325;1316;141204;-65
2022/01/12 10:04:22;;;;;;;129.10;61.00;;;;;;;-1.11;80.14;101798.26;209465;1316;141820;-65
2022/01/12 10:09:40;;;;;;;120.30;56.00;;;;;;;-1.10;80.22;101801.34;207981;1317;139867;-66
2022/01/12 10:14:55;;;;;;;124.20;64.00;;;;;;;-1.05;80.38;101811.27;208136;1316;140069;-66
2022/01/12 10:20:18;;;;;;;62.70;30.60;;;;;;;-0.97;80.28;101803.40;208219;1317;142139;-62
2022/01/12 10:25:25;;;;;;;126.60;59.90;;;;;;;-0.92;79.76;101804.79;207813;1315;139983;-64
2022/01/12 10:30:30;;;;;;;134.40;60.30;;;;;;;-0.89;79.84;101803.90;207248;1318;140975;-62
2022/01/12 10:35:37;;;;;;;151.10;66.60;;;;;;;-0.90;79.58;101799.95;207111;1315;143086;-61
2022/01/12 10:40:52;;;;;;;127.90;61.40;;;;;;;-0.89;79.92;101802.64;207705;1317;141185;-62
2022/01/12 10:45:56;;;;;;;120.10;57.60;;;;;;;-0.81;79.91;101796.08;207776;1315;142814;-65
2022/01/12 10:51:00;;;;;;;131.50;59.10;;;;;;;-0.70;79.67;101799.64;207272;1316;140686;-63
2022/01/12 10:56:07;;;;;;;149.80;58.10;;;;;;;-0.71;79.53;101789.11;206870;1318;140964;-64
2022/01/12 11:01:12;;;;;;;137.90;62.20;;;;;;;-0.68;79.44;101779.80;207655;1316;165307;-63
2022/01/12 11:06:20;;;;;;;150.70;65.80;;;;;;;-0.62;79.43;101776.03;207134;1316;140496;-62
2022/01/12 11:11:26;;;;;;;149.00;66.70;;;;;;;-0.65;79.25;101761.44;208381;1316;140280;-61
2022/01/12 11:16:31;;;;;;;146.90;65.70;;;;;;;-0.75;79.14;101767.36;208177;1316;140627;-61
2022/01/12 11:21:49;;;;;;;;;;;;;;;-0.78;79.05;101759.41;207813;1316;142166;-62
2022/01/12 11:26:53;;;;;;;137.00;59.90;;;;;;;-0.81;79.01;101760.83;208822;1316;126249;-64
2022/01/12 11:32:13;;;;;;;135.20;62.50;;;;;;;-0.68;78.97;101751.18;207924;1316;141664;-65
2022/01/12 11:37:17;;;;;;;133.80;61.80;;;;;;;-0.59;78.79;101753.31;209185;1316;141180;-65
2022/01/12 11:42:20;;;;;;;140.40;61.60;;;;;;;-0.50;78.67;101756.14;207404;1315;141358;-67
2022/01/12 11:47:26;;;;;;;138.90;57.90;;;;;;;-0.46;78.70;101736.08;207989;1319;141850;-68
2022/01/12 11:52:31;;;;;;;133.50;60.20;;;;;;;-0.28;78.69;101728.27;208722;1315;143065;-67
2022/01/12 11:57:41;;;;;;;136.30;72.80;;;;;;;-0.12;78.79;101735.20;208381;1316;140084;-66
2022/01/12 12:02:52;;;;;;;148.80;70.90;;;;;;;-0.02;78.53;101733.75;208168;1317;141518;-69
2022/01/12 12:08:03;;;;;;;122.00;63.00;;;;;;;-0.03;78.29;101739.42;208319;1316;139970;-68
2022/01/12 12:13:11;;;;;;;136.80;57.40;;;;;;;-0.13;78.06;101720.43;207172;1315;142067;-66
2022/01/12 12:18:17;;;;;;;131.30;56.90;;;;;;;-0.22;78.17;101717.66;207363;1315;231966;-66
2022/01/12 12:23:28;;;;;;;123.30;59.80;;;;;;;-0.17;78.19;101711.33;207347;1316;142663;-66
2022/01/12 12:28:31;;;;;;;132.90;64.00;;;;;;;-0.09;78.00;101704.45;207506;1316;140320;-65
2022/01/12 12:33:35;;;;;;;134.80;58.50;;;;;;;-0.11;78.15;101705.09;207219;1316;140905;-66
2022/01/12 12:38:41;;;;;;;119.50;57.40;;;;;;;-0.08;78.06;101705.57;207463;1315;142045;-65
2022/01/12 12:43:45;;;;;;;127.00;59.00;;;;;;;-0.12;77.95;101704.27;206961;1319;140953;-64
2022/01/12 12:48:50;;;;;;;128.70;60.60;;;;;;;-0.12;78.03;101718.46;207250;1317;140561;-64
2022/01/12 12:53:58;;;;;;;131.20;53.50;;;;;;;-0.15;77.94;101714.47;206772;1317;141103;-63
2022/01/12 12:59:01;;;;;;;129.50;55.80;;;;;;;-0.12;77.85;101710.92;207853;1316;152234;-63
2022/01/12 13:04:03;;;;;;;130.30;57.40;;;;;;;-0.04;77.98;101714.84;206986;1316;140538;-65
2022/01/12 13:09:09;;;;;;;133.40;61.80;;;;;;;-0.00;77.88;101717.60;208529;1319;140934;-65
2022/01/12 13:14:17;;;;;;;126.90;58.50;;;;;;;-0.02;78.13;101716.98;208102;1316;140011;-62
2022/01/12 13:25:00;;;;;;;127.80;57.30;;;;;;;-0.08;77.56;101702.64;208453;1316;140034;-62
2022/01/12 13:30:04;;;;;;;;;;;;;;;-0.13;77.60;101688.27;207799;1317;140356;-64
2022/01/12 13:35:11;;;;;;;126.40;58.30;;;;;;;-0.11;77.66;101681.73;209163;1317;127291;-65
2022/01/12 13:40:15;;;;;;;130.00;56.10;;;;;;;-0.10;77.86;101679.83;209162;1316;141009;-66
2022/01/12 13:45:26;;;;;;;138.80;63.40;;;;;;;-0.11;77.79;101673.27;208515;1320;141651;-66
2022/01/12 13:50:36;;;;;;;125.10;55.40;;;;;;;-0.08;77.85;101669.61;208703;1317;141640;-70
2022/01/12 13:55:55;;;;;;;114.60;55.50;;;;;;;-0.09;77.95;101668.39;208428;1316;616807;-69
2022/01/12 14:01:13;;;;;;;114.30;50.00;;;;;;;-0.14;77.37;101668.67;207978;1317;142502;-67
2022/01/12 14:06:26;;;;;;;109.00;49.50;;;;;;;-0.21;77.76;101670.21;208004;1315;142435;-65
2022/01/12 14:11:39;;;;;;;125.00;56.40;;;;;;;-0.21;77.64;101668.35;208338;1319;143189;-68
2022/01/12 14:16:42;;;;;;;101.80;48.00;;;;;;;-0.21;77.98;101669.88;207864;1317;141418;-67
2022/01/12 14:21:59;;;;;;;115.50;53.70;;;;;;;-0.27;77.57;101674.55;207951;1317;141326;-67
2022/01/12 14:27:03;;;;;;;110.20;52.60;;;;;;;-0.34;77.74;101660.75;207367;1316;140154;-68
2022/01/12 14:32:07;;;;;;;106.90;52.30;;;;;;;-0.41;77.86;101662.71;208141;1315;140458;-64
2022/01/12 14:37:12;;;;;;;111.90;44.60;;;;;;;-0.48;77.95;101664.96;207682;1317;140388;-62
2022/01/12 14:42:18;;;;;;;106.00;48.60;;;;;;;-0.50;77.86;101663.71;207928;1316;164134;-63
2022/01/12 14:47:22;;;;;;;111.50;52.20;;;;;;;-0.51;77.80;101664.64;207672;1316;164010;-63
2022/01/12 14:52:25;;;;;;;91.80;48.30;;;;;;;-0.56;77.78;101666.08;207518;1316;141580;-62
2022/01/12 14:57:28;;;;;;;105.40;48.70;;;;;;;-0.59;77.78;101662.50;207421;1317;140140;-62
2022/01/12 15:02:30;;;;;;;94.70;47.70;;;;;;;-0.64;77.89;101653.82;207830;1316;143424;-63
2022/01/12 15:07:34;;;;;;;101.60;44.10;;;;;;;-0.72;77.88;101651.39;208679;1316;141575;-64
2022/01/12 15:12:39;;;;;;;101.00;45.00;;;;;;;-0.74;78.02;101647.40;208129;1317;143953;-63
2022/01/12 15:17:45;;;;;;;112.50;46.90;;;;;;;-0.73;77.89;101645.38;208057;1317;141336;-65
2022/01/12 15:23:00;;;;;;;96.40;50.20;;;;;;;-0.71;77.94;101637.01;208006;1316;140580;-64
2022/01/12 15:28:09;;;;;;;73.30;36.30;;;;;;;-0.71;78.19;101630.02;207956;1316;140574;-64
2022/01/12 15:33:17;;;;;;;98.90;43.60;;;;;;;-0.75;77.97;101621.81;208304;1316;140679;-64
2022/01/12 15:38:21;;;;;;;88.70;44.90;;;;;;;-0.72;78.10;101620.36;208289;1316;142066;-64
2022/01/12 15:43:24;;;;;;;90.90;41.50;;;;;;;-0.70;77.97;101617.95;207582;1316;142850;-64
2022/01/12 15:48:29;;;;;;;89.00;39.80;;;;;;;-0.71;78.03;101609.29;207083;1317;141440;-66
2022/01/12 15:53:32;;;;;;;74.60;39.00;;;;;;;-0.76;77.97;101601.95;209404;1313;140382;-66
2022/01/12 15:58:40;;;;;;;79.50;38.90;;;;;;;-0.80;77.91;101601.94;208354;1317;219670;-66
2022/01/12 16:03:59;;;;;;;82.40;36.10;;;;;;;-0.83;77.61;101602.49;207654;1315;141358;-66
2022/01/12 16:09:03;;;;;;;89.80;39.90;;;;;;;-0.84;77.75;101596.14;207486;1316;141892;-66
2022/01/12 16:14:09;;;;;;;124.00;60.90;;;;;;;-0.85;77.76;101594.98;207297;1316;140993;-66
2022/01/12 16:19:12;;;;;;;79.60;35.00;;;;;;;-0.89;77.65;101597.41;207837;1316;141530;-65
2022/01/12 16:24:19;;;;;;;79.50;33.50;;;;;;;-0.92;77.45;101600.78;207661;1316;152772;-65
2022/01/12 16:29:28;;;;;;;;;;;;;;;-0.92;77.37;101596.56;206905;1317;144882;-65
2022/01/12 16:34:37;;;;;;;51.70;27.80;;;;;;;-0.95;77.39;101604.70;207453;1316;126008;-65
2022/01/12 16:39:45;;;;;;;52.20;24.10;;;;;;;-0.95;77.36;101602.25;207459;1316;140872;-66
2022/01/12 16:44:49;;;;;;;50.60;24.30;;;;;;;-0.98;77.22;101597.73;207011;1316;141543;-65
2022/01/12 16:49:53;;;;;;;53.10;23.30;;;;;;;-1.01;77.02;101595.33;207267;1316;139986;-65
2022/01/12 16:54:59;;;;;;;58.20;26.10;;;;;;;-1.03;76.85;101605.95;207345;1316;142715;-66
2022/01/12 17:00:05;;;;;;;49.50;23.20;;;;;;;-1.04;76.71;101611.02;207266;1316;141057;-65
2022/01/12 17:05:17;;;;;;;41.30;22.10;;;;;;;-1.06;76.67;101611.72;206813;1316;139688;-66
2022/01/12 17:10:21;;;;;;;47.60;24.20;;;;;;;-1.10;76.64;101616.40;208298;1316;139949;-64
2022/01/12 17:15:39;;;;;;;31.50;16.20;;;;;;;-1.12;76.45;101619.35;207272;1316;141151;-68
2022/01/12 17:20:45;;;;;;;56.40;25.50;;;;;;;-1.15;76.48;101626.34;207917;1316;142305;-71
2022/01/12 17:25:51;;;;;;;27.80;15.60;;;;;;;-1.11;76.37;101629.55;206816;1316;141531;-69
2022/01/12 17:30:58;;;;;;;51.30;26.70;;;;;;;-1.14;76.15;101616.86;207812;1318;140715;-69
2022/01/12 17:36:56;;;;;;;51.80;26.30;;;;;;;-1.16;76.34;101607.20;207303;1316;141258;-68
2022/01/12 17:42:02;;;;;;;47.60;24.10;;;;;;;-1.15;76.23;101608.45;207963;1318;141183;-68
2022/01/12 17:47:08;;;;;;;44.60;23.80;;;;;;;-1.15;76.35;101616.42;209267;1316;141076;-73
2022/01/12 17:52:13;;;;;;;63.00;25.20;;;;;;;-1.14;76.09;101621.55;208875;1316;141012;-68
2022/01/12 17:57:15;;;;;;;57.70;29.20;;;;;;;-1.08;76.03;101613.09;208959;1320;142293;-69
2022/01/12 18:02:25;;;;;;;42.80;19.50;;;;;;;-0.99;76.14;101607.77;208550;1317;141803;-71
2022/01/12 18:07:29;;;;;;;51.00;24.70;;;;;;;-0.98;76.00;101599.30;208336;1316;141222;-67
2022/01/12 18:12:37;;;;;;;58.40;25.00;;;;;;;-1.00;76.01;101580.43;208341;1316;154062;-64
2022/01/12 18:17:43;;;;;;;50.10;24.00;;;;;;;-1.01;76.02;101577.86;207496;1316;141391;-65
2022/01/12 18:22:45;;;;;;;54.70;27.80;;;;;;;-0.99;75.98;101565.70;208093;1316;141782;-69
2022/01/12 18:27:48;;;;;;;48.80;22.70;;;;;;;-0.98;76.08;101565.45;207604;1316;140461;-74
2022/01/12 18:32:52;;;;;;;52.90;27.60;;;;;;;-0.98;76.15;101573.88;206998;1315;140015;-65
2022/01/12 18:37:55;;;;;;;51.40;26.90;;;;;;;-1.05;76.25;101578.38;207136;1316;139805;-63
2022/01/12 18:42:59;;;;;;;57.50;25.20;;;;;;;-1.11;76.42;101586.63;207260;1316;140598;-67
2022/01/12 18:48:04;;;;;;;57.40;28.90;;;;;;;-1.10;76.54;101582.16;207700;1317;141096;-70
2022/01/12 18:53:07;;;;;;;57.30;28.90;;;;;;;-1.12;76.80;101582.32;207031;1316;140357;-68
2022/01/12 18:58:15;;;;;;;32.80;14.00;;;;;;;-1.15;76.95;101582.42;207110;1316;140451;-69
2022/01/12 19:03:17;;;;;;;56.70;28.90;;;;;;;-1.23;77.11;101577.63;207899;1316;141269;-67
2022/01/12 19:08:24;;;;;;;56.80;28.00;;;;;;;-1.28;77.14;101579.39;207452;1316;142246;-68
2022/01/12 19:13:27;;;;;;;57.90;29.80;;;;;;;-1.29;77.21;101588.38;207953;1316;140647;-67
2022/01/12 19:18:33;;;;;;;67.00;31.60;;;;;;;-1.29;77.53;101585.39;206807;1316;140416;-67
2022/01/12 19:23:38;;;;;;;54.70;26.20;;;;;;;-1.28;77.92;101575.04;207208;1316;141227;-65
2022/01/12 19:28:55;;;;;;;60.20;28.50;;;;;;;-1.30;77.89;101564.04;206880;1316;140766;-70
2022/01/12 19:34:02;;;;;;;60.30;26.90;;;;;;;-1.29;78.16;101560.77;206855;1316;141142;-68
2022/01/12 19:39:08;;;;;;;53.80;30.40;;;;;;;-1.22;78.37;101587.49;208313;1317;140552;-71
2022/01/12 19:44:15;;;;;;;54.10;28.10;;;;;;;-1.26;78.45;101594.58;207340;1315;140850;-74
2022/01/12 19:49:23;;;;;;;68.10;34.20;;;;;;;-1.32;78.63;101592.60;208158;1316;141969;-63
2022/01/12 19:54:45;;;;;;;59.20;31.60;;;;;;;-1.30;79.04;101585.85;207644;1316;143724;-65
2022/01/12 19:59:55;;;;;;;74.20;37.30;;;;;;;-1.25;78.90;101573.25;208828;1315;141946;-68
2022/01/12 20:05:02;;;;;;;;;;;;;;;-1.24;79.27;101576.81;209517;1316;140988;-69
2022/01/12 20:10:07;;;;;;;61.70;31.50;;;;;;;-1.26;79.38;101584.98;209966;1315;136841;-72
2022/01/12 20:15:12;;;;;;;71.30;32.60;;;;;;;-1.21;79.21;101590.55;208078;1318;141680;-71
2022/01/12 20:25:59;;;;;;;72.00;36.20;;;;;;;-1.15;79.81;101598.08;208341;1316;143299;-72
2022/01/12 20:31:02;;;;;;;83.70;37.30;;;;;;;-1.14;79.98;101603.10;207186;1318;140806;-69
2022/01/12 20:36:05;;;;;;;69.40;33.80;;;;;;;-1.11;80.02;101603.77;207022;1318;141894;-66
2022/01/12 20:41:10;;;;;;;80.70;39.20;;;;;;;-1.05;80.32;101596.47;208710;1316;142041;-73
2022/01/12 20:46:14;;;;;;;73.20;38.70;;;;;;;-0.98;80.30;101604.21;207304;1316;142897;-71
2022/01/12 20:51:17;;;;;;;63.90;35.70;;;;;;;-0.95;80.79;101590.69;207045;1316;141562;-72
2022/01/12 20:56:22;;;;;;;70.00;30.60;;;;;;;-0.95;80.71;101562.41;207581;1316;141200;-68
2022/01/12 21:01:29;;;;;;;72.00;32.70;;;;;;;-0.95;80.44;101562.45;208628;1316;144817;-68
2022/01/12 21:06:39;;;;;;;72.80;35.20;;;;;;;-0.94;80.67;101555.35;207840;1316;140778;-69
2022/01/12 21:11:47;;;;;;;89.00;43.90;;;;;;;-0.95;80.62;101555.83;207812;1315;142503;-69
2022/01/12 21:16:51;;;;;;;92.10;44.00;;;;;;;-0.98;80.91;101564.06;207463;1318;139904;-68
2022/01/12 21:21:55;;;;;;;83.80;41.50;;;;;;;-0.92;81.22;101552.74;208140;1318;140558;-70
2022/01/12 21:26:58;;;;;;;73.40;35.10;;;;;;;-0.86;81.19;101559.24;207555;1316;141325;-69
2022/01/12 21:32:04;;;;;;;82.70;38.40;;;;;;;-0.82;81.40;101563.30;208012;1316;140030;-66
2022/01/12 21:37:23;;;;;;;73.90;33.00;;;;;;;-0.80;81.45;101570.13;208523;1318;141221;-67
2022/01/12 21:42:35;;;;;;;85.60;33.90;;;;;;;-0.74;81.55;101566.73;207480;1316;140420;-69
2022/01/12 21:47:38;;;;;;;94.80;42.90;;;;;;;-0.67;81.41;101563.41;208170;1316;140341;-68
2022/01/12 21:52:41;;;;;;;80.10;38.40;;;;;;;-0.62;81.47;101567.02;207386;1314;669164;-67
2022/01/12 21:57:45;;;;;;;95.10;38.50;;;;;;;-0.59;81.71;101562.96;209047;1315;139956;-68
2022/01/12 22:02:48;;;;;;;95.30;38.10;;;;;;;-0.59;81.66;101563.31;209283;1313;142556;-69
2022/01/12 22:07:56;;;;;;;86.40;38.70;;;;;;;-0.59;81.43;101555.27;209467;1316;140824;-66
2022/01/12 22:12:59;;;;;;;81.60;38.30;;;;;;;-0.55;81.56;101542.92;208505;1318;141654;-67
2022/01/12 22:18:09;;;;;;;75.30;36.20;;;;;;;-0.52;81.70;101526.23;209133;1316;140054;-65
2022/01/12 22:23:15;;;;;;;87.80;38.60;;;;;;;-0.50;81.61;101533.95;207854;1316;140044;-65
2022/01/12 22:28:25;;;;;;;79.90;34.40;;;;;;;-0.45;81.69;101535.64;207132;1317;141763;-65
2022/01/12 22:33:30;;;;;;;82.50;39.50;;;;;;;-0.41;81.87;101533.78;206992;1318;142166;-66
2022/01/12 22:38:33;;;;;;;87.20;41.10;;;;;;;-0.39;81.97;101531.74;207488;1315;140896;-68
2022/01/12 22:43:40;;;;;;;86.10;41.00;;;;;;;-0.41;82.22;101532.71;206923;1318;139762;-65
2022/01/12 22:48:52;;;;;;;84.40;35.00;;;;;;;-0.41;82.31;101525.23;206875;1316;139912;-66
2022/01/12 22:54:01;;;;;;;86.20;33.00;;;;;;;-0.43;81.86;101509.52;207468;1315;142092;-66
2022/01/12 22:59:07;;;;;;;78.70;35.40;;;;;;;-0.44;82.21;101506.42;207503;1317;141559;-65
2022/01/12 23:04:15;;;;;;;77.60;37.80;;;;;;;-0.40;82.17;101489.36;207030;1317;142014;-65
2022/01/12 23:09:30;;;;;;;76.70;34.40;;;;;;;-0.41;82.46;101481.36;208085;1316;140383;-67
2022/01/12 23:14:59;;;;;;;;;;;;;;;;;;;;;
2022/01/12 23:20:07;;;;;;;74.50;29.90;;;;;;;-0.34;82.27;101486.79;207255;1315;140771;-67
2022/01/12 23:25:16;;;;;;;61.60;28.90;;;;;;;-0.27;82.55;101478.91;207146;1315;250041;-66
2022/01/12 23:30:36;;;;;;;62.20;28.90;;;;;;;-0.31;82.37;101472.73;207111;1315;142581;-66
2022/01/12 23:57:27;;;;;;;56.70;24.50;;;;;;;-0.23;82.67;101495.69;207851;1316;140481;-67
